Time;durP1;ratioP1;P1;durP2;ratioP2;P2;SDS_P1;SDS_P2;PMS_P1;PMS_P2;Temp;Humidity;BMP_temperature;BMP_pressure;BME280_temperature;BME280_humidity;BME280_pressure;Samples;Min_cycle;Max_cycle;Signal;HPM_P1;HPM_P2
2023/08/02 04:00:42;;;;;;;5.53;2.60;;;23.30;97.70;;;;;;6224322;28;89765;-67
2023/08/02 04:03:44;;;;;;;3.25;2.10;;;23.30;97.70;;;;;;6227281;28;89161;-67
2023/08/02 04:06:46;;;;;;;3.58;2.08;;;23.30;97.70;;;;;;6227788;28;88272;-67
2023/08/02 04:09:48;;;;;;;3.72;2.13;;;23.30;97.70;;;;;;6217506;28;89087;-67
2023/08/02 04:12:52;;;;;;;3.00;2.08;;;23.20;97.60;;;;;;6226003;28;88056;-67
2023/08/02 04:15:55;;;;;;;3.15;1.98;;;23.30;97.60;;;;;;6222920;28;91958;-67
2023/08/02 04:18:57;;;;;;;3.05;1.90;;;23.30;97.60;;;;;;6228287;28;89003;-67
2023/08/02 04:21:59;;;;;;;5.50;2.83;;;23.30;97.60;;;;;;6227792;28;89348;-67
2023/08/02 04:25:02;;;;;;;2.53;1.90;;;23.30;97.60;;;;;;6227201;28;89034;-67
2023/08/02 04:28:04;;;;;;;3.08;2.00;;;23.30;97.60;;;;;;6227372;28;89200;-67
2023/08/02 04:31:08;;;;;;;3.35;2.15;;;23.30;97.60;;;;;;6229076;28;89035;-67
2023/08/02 04:34:10;;;;;;;5.30;2.58;;;23.30;97.60;;;;;;6230237;28;89017;-67
2023/08/02 04:37:12;;;;;;;5.30;2.58;;;23.30;97.50;;;;;;6227274;28;87832;-67
2023/08/02 04:40:14;;;;;;;2.75;1.88;;;23.30;97.40;;;;;;6229531;28;89081;-67
2023/08/02 04:43:16;;;;;;;3.78;2.20;;;23.30;97.30;;;;;;6225375;28;88969;-67
2023/08/02 04:46:19;;;;;;;4.88;2.58;;;23.30;97.70;;;;;;6227092;28;89948;-67
2023/08/02 04:49:22;;;;;;;2.38;1.85;;;23.30;97.30;;;;;;6227434;28;89215;-67
2023/08/02 04:52:24;;;;;;;2.63;2.03;;;23.30;97.30;;;;;;6230891;28;89320;-67
2023/08/02 04:55:26;;;;;;;3.95;2.30;;;23.30;97.50;;;;;;6223138;28;89229;-68
2023/08/02 04:58:28;;;;;;;4.28;2.40;;;23.30;99.90;;;;;;6223639;28;87993;-68
2023/08/02 05:01:32;;;;;;;4.97;2.40;;;23.30;99.90;;;;;;6227221;28;89032;-68
2023/08/02 05:04:34;;;;;;;3.50;2.20;;;23.30;99.90;;;;;;6226748;28;89271;-68
2023/08/02 05:07:36;;;;;;;3.17;2.17;;;23.30;99.90;;;;;;6226202;28;89611;-68
2023/08/02 05:10:38;;;;;;;4.20;2.08;;;23.40;99.90;;;;;;6224285;28;87931;-68
2023/08/02 05:13:40;;;;;;;2.65;1.88;;;23.40;99.90;;;;;;6228090;28;89220;-68
2023/08/02 05:16:44;;;;;;;2.83;1.88;;;23.40;99.60;;;;;;6225993;28;89999;-66
2023/08/02 05:19:46;;;;;;;4.47;2.05;;;23.40;99.40;;;;;;6225640;28;89000;-68
2023/08/02 05:22:50;;;;;;;5.50;2.15;;;23.40;99.30;;;;;;6229191;28;89034;-67
2023/08/02 05:25:54;;;;;;;5.43;2.15;;;23.40;99.20;;;;;;6225835;28;89259;-67
2023/08/02 05:28:56;;;;;;;4.53;2.40;;;23.40;99.10;;;;;;6228205;28;88994;-67
2023/08/02 05:31:59;;;;;;;4.28;2.33;;;23.40;99.00;;;;;;6224001;28;89089;-67
2023/08/02 05:35:01;;;;;;;6.18;2.70;;;23.40;98.90;;;;;;6225574;28;89103;-67
2023/08/02 05:38:04;;;;;;;7.57;2.90;;;23.40;98.90;;;;;;6226827;28;88443;-68
2023/08/02 05:41:06;;;;;;;4.30;2.40;;;23.40;98.80;;;;;;6227102;28;89424;-67
2023/08/02 05:44:08;;;;;;;4.18;2.22;;;23.40;98.70;;;;;;6225673;28;88990;-67
2023/08/02 05:47:12;;;;;;;4.25;2.25;;;23.50;98.60;;;;;;6226374;28;89027;-67
2023/08/02 05:50:13;;;;;;;3.80;1.88;;;23.40;98.60;;;;;;6225520;28;89077;-67
2023/08/02 05:53:15;;;;;;;4.07;2.47;;;23.40;98.60;;;;;;6223421;28;89057;-67
2023/08/02 05:56:18;;;;;;;3.92;2.10;;;23.40;98.60;;;;;;6227619;28;89037;-67
2023/08/02 05:59:20;;;;;;;4.75;2.30;;;23.40;98.60;;;;;;6226039;28;87943;-67
2023/08/02 06:02:23;;;;;;;6.50;2.95;;;23.40;98.60;;;;;;6227188;28;89049;-67
2023/08/02 06:05:25;;;;;;;7.18;2.83;;;23.40;98.60;;;;;;6226870;27;89004;-68
2023/08/02 06:08:27;;;;;;;5.22;2.58;;;23.40;98.60;;;;;;6224758;27;87628;-67
2023/08/02 06:11:29;;;;;;;3.35;1.88;;;23.40;98.40;;;;;;6226938;28;89033;-67
2023/08/02 06:14:31;;;;;;;5.13;2.10;;;23.40;98.30;;;;;;6225504;28;88391;-67
2023/08/02 06:17:35;;;;;;;3.53;1.90;;;23.40;98.30;;;;;;6226028;28;90230;-67
2023/08/02 06:20:37;;;;;;;3.95;2.13;;;23.40;98.30;;;;;;6226059;28;88994;-67
2023/08/02 06:23:39;;;;;;;4.55;2.45;;;23.40;98.30;;;;;;6223743;28;88731;-67
2023/08/02 06:26:41;;;;;;;5.53;2.40;;;23.40;98.40;;;;;;6226703;28;89037;-67
2023/08/02 06:29:42;;;;;;;3.53;1.90;;;23.40;98.30;;;;;;6226982;28;89088;-67
2023/08/02 06:32:46;;;;;;;2.97;2.00;;;23.40;98.30;;;;;;6224499;28;88979;-67
2023/08/02 06:35:48;;;;;;;2.63;2.00;;;23.40;98.30;;;;;;6225396;28;89089;-67
2023/08/02 06:38:50;;;;;;;2.83;2.00;;;23.40;98.40;;;;;;6228005;28;88462;-67
2023/08/02 06:41:52;;;;;;;2.67;1.95;;;23.40;98.40;;;;;;6227035;28;89109;-67
2023/08/02 06:44:54;;;;;;;3.17;2.20;;;23.40;98.60;;;;;;6227670;28;88950;-67
2023/08/02 06:47:57;;;;;;;3.83;2.15;;;23.40;98.80;;;;;;6227076;28;90228;-67
2023/08/02 06:51:00;;;;;;;5.07;2.53;;;23.40;98.90;;;;;;6220457;28;89017;-67
2023/08/02 06:54:02;;;;;;;3.42;2.15;;;23.40;98.90;;;;;;6226542;27;88007;-67
2023/08/02 06:57:04;;;;;;;3.67;2.10;;;23.40;98.80;;;;;;6225313;28;89049;-67
2023/08/02 07:00:08;;;;;;;2.78;1.90;;;23.40;98.70;;;;;;6227336;28;89385;-67
2023/08/02 07:03:11;;;;;;;3.88;1.98;;;23.40;98.70;;;;;;6226645;28;89085;-67
2023/08/02 07:06:15;;;;;;;3.30;2.10;;;23.40;98.80;;;;;;6225758;28;89094;-67
2023/08/02 07:09:17;;;;;;;3.33;2.13;;;23.40;98.90;;;;;;6228780;28;88787;-67
2023/08/02 07:12:19;;;;;;;3.55;2.20;;;23.40;99.00;;;;;;6228312;27;89151;-67
2023/08/02 07:15:21;;;;;;;4.75;2.17;;;23.40;99.00;;;;;;6225589;28;89296;-67
2023/08/02 07:18:24;;;;;;;3.60;2.20;;;23.40;99.10;;;;;;6226077;28;89959;-67
2023/08/02 07:21:26;;;;;;;3.88;2.33;;;23.40;99.10;;;;;;6219605;28;89025;-67
2023/08/02 07:24:28;;;;;;;3.33;2.30;;;23.40;99.00;;;;;;6225912;28;87883;-67
2023/08/02 07:27:30;;;;;;;3.08;2.10;;;23.40;98.90;;;;;;6226403;28;89115;-68
2023/08/02 07:30:32;;;;;;;2.88;1.90;;;23.40;98.80;;;;;;6226092;28;89053;-67
2023/08/02 07:33:36;;;;;;;3.30;2.00;;;23.40;98.90;;;;;;6230247;28;88964;-67
2023/08/02 07:36:37;;;;;;;2.88;2.00;;;23.40;98.90;;;;;;6230998;28;89035;-67
2023/08/02 07:39:40;;;;;;;3.45;1.92;;;23.40;98.90;;;;;;6230647;28;88314;-67
2023/08/02 07:42:42;;;;;;;3.70;1.98;;;23.40;98.80;;;;;;6231757;28;89161;-68
2023/08/02 07:45:44;;;;;;;6.82;2.88;;;23.40;98.80;;;;;;6229985;28;89062;-68
2023/08/02 07:48:48;;;;;;;4.45;2.22;;;23.40;98.60;;;;;;6228606;28;90261;-68
2023/08/02 07:51:50;;;;;;;2.28;1.77;;;23.40;98.40;;;;;;6230217;28;89145;-68
2023/08/02 07:54:53;;;;;;;3.55;2.10;;;23.40;98.30;;;;;;6229671;28;89012;-68
2023/08/02 07:57:55;;;;;;;3.22;2.00;;;23.40;98.20;;;;;;6227958;28;89041;-68
2023/08/02 08:00:57;;;;;;;3.75;2.17;;;23.40;98.10;;;;;;6230621;28;88360;-68
2023/08/02 08:04:00;;;;;;;2.72;1.70;;;23.40;97.80;;;;;;6229437;28;89160;-68
2023/08/02 08:07:02;;;;;;;3.70;2.20;;;23.40;97.40;;;;;;6229519;28;89293;-68
2023/08/02 08:10:05;;;;;;;3.63;2.00;;;23.40;97.20;;;;;;6231934;28;88367;-68
2023/08/02 08:13:07;;;;;;;5.07;2.70;;;23.40;97.00;;;;;;6228857;28;89035;-68
2023/08/02 08:16:09;;;;;;;3.95;2.08;;;23.40;97.10;;;;;;6229623;28;90744;-68
2023/08/02 08:19:12;;;;;;;2.95;1.85;;;23.40;97.00;;;;;;6227363;28;89974;-68
2023/08/02 08:22:15;;;;;;;3.40;2.10;;;23.40;97.00;;;;;;6231053;28;89027;-68
2023/08/02 08:25:17;;;;;;;4.80;2.40;;;23.40;96.90;;;;;;6230767;28;89070;-68
2023/08/02 08:28:19;;;;;;;2.78;1.83;;;23.40;96.80;;;;;;6226965;28;91224;-68
2023/08/02 08:31:21;;;;;;;2.92;1.70;;;23.30;96.60;;;;;;6230549;28;89024;-68
2023/08/02 08:34:24;;;;;;;2.83;1.95;;;23.40;96.50;;;;;;6229201;28;89482;-68
2023/08/02 08:37:26;;;;;;;2.78;1.90;;;23.40;96.40;;;;;;6230666;28;88997;-68
2023/08/02 08:40:28;;;;;;;3.80;2.00;;;23.40;96.40;;;;;;6225807;28;88251;-67
2023/08/02 08:43:32;;;;;;;3.42;2.03;;;23.30;96.40;;;;;;6226691;28;89383;-68
2023/08/02 08:46:35;;;;;;;2.72;1.75;;;23.40;96.50;;;;;;6230917;28;88935;-68
2023/08/02 08:49:39;;;;;;;4.05;1.98;;;23.40;96.40;;;;;;6228034;28;90011;-68
2023/08/02 08:52:42;;;;;;;4.53;2.35;;;23.30;96.30;;;;;;6227117;28;88272;-68
2023/08/02 08:55:49;;;;;;;3.83;2.13;;;23.40;96.40;;;;;;6228897;28;87813;-68
2023/08/02 08:58:53;;;;;;;3.53;2.03;;;23.40;96.40;;;;;;6227301;28;88943;-68
2023/08/02 09:01:55;;;;;;;2.90;1.95;;;23.40;96.40;;;;;;6227761;28;88994;-68
2023/08/02 09:05:01;;;;;;;2.20;1.65;;;23.40;96.50;;;;;;6225922;28;89468;-68
2023/08/02 09:08:03;;;;;;;2.80;1.80;;;23.30;96.40;;;;;;6228375;28;89154;-69
2023/08/02 09:11:06;;;;;;;2.88;1.80;;;23.30;96.20;;;;;;6228845;28;88416;-68
2023/08/02 09:14:12;;;;;;;3.90;2.30;;;23.40;96.10;;;;;;6230309;28;89277;-67
2023/08/02 09:17:15;;;;;;;5.50;2.53;;;23.30;96.00;;;;;;6225871;28;89016;-67
2023/08/02 09:20:19;;;;;;;3.78;2.33;;;23.30;96.00;;;;;;6226682;28;90016;-68
2023/08/02 09:23:22;;;;;;;3.75;2.28;;;23.30;95.90;;;;;;6228870;28;89032;-68
2023/08/02 09:26:24;;;;;;;3.83;1.98;;;23.30;96.00;;;;;;6227904;28;89055;-68
2023/08/02 09:29:26;;;;;;;2.95;1.95;;;23.30;96.00;;;;;;6227167;28;87967;-68
2023/08/02 09:32:28;;;;;;;2.78;1.90;;;23.30;96.20;;;;;;6228419;28;89012;-68
2023/08/02 09:35:48;;;;;;;2.50;1.80;;;23.30;96.20;;;;;;6227164;28;89020;-68
2023/08/02 09:38:58;;;;;;;2.78;1.90;;;23.30;96.30;;;;;;6229756;28;89073;-68
2023/08/02 09:42:09;;;;;;;2.55;1.70;;;23.30;96.40;;;;;;6229689;28;88362;-68
2023/08/02 09:45:11;;;;;;;3.30;1.90;;;23.30;96.40;;;;;;6226745;28;87961;-68
2023/08/02 09:48:13;;;;;;;2.25;1.70;;;23.30;96.40;;;;;;6228043;28;91066;-68
2023/08/02 09:51:17;;;;;;;2.17;1.70;;;23.30;96.40;;;;;;6228230;28;89947;-68
2023/08/02 09:54:19;;;;;;;4.32;2.20;;;23.30;96.40;;;;;;6226610;28;90063;-68
2023/08/02 09:57:22;;;;;;;6.10;2.83;;;23.30;96.40;;;;;;6225725;28;89034;-68
2023/08/02 10:00:24;;;;;;;3.75;2.13;;;23.30;96.50;;;;;;6226043;28;89394;-67
2023/08/02 10:03:28;;;;;;;3.05;1.98;;;23.30;96.60;;;;;;6226865;28;88962;-68
2023/08/02 10:06:35;;;;;;;3.22;2.05;;;23.30;96.60;;;;;;6227581;28;89256;-67
2023/08/02 10:09:38;;;;;;;3.03;1.90;;;23.30;96.70;;;;;;6226043;28;90176;-67
2023/08/02 10:12:41;;;;;;;3.55;2.03;;;23.30;96.70;;;;;;6228475;28;88246;-67
2023/08/02 10:15:43;;;;;;;3.10;1.92;;;23.40;96.80;;;;;;6226071;28;89429;-67
2023/08/02 10:18:47;;;;;;;3.92;2.20;;;23.30;96.80;;;;;;6225656;28;89022;-67
2023/08/02 10:21:51;;;;;;;3.58;2.05;;;23.40;96.80;;;;;;6227789;27;89616;-67
2023/08/02 10:24:53;;;;;;;3.00;2.03;;;23.40;96.90;;;;;;6227090;28;88290;-67
2023/08/02 10:27:56;;;;;;;2.92;1.83;;;23.30;96.80;;;;;;6225711;28;88968;-67
2023/08/02 10:30:58;;;;;;;3.30;1.98;;;23.40;96.60;;;;;;6226703;28;89055;-67
2023/08/02 10:34:00;;;;;;;3.75;2.15;;;23.30;96.50;;;;;;6227278;28;89158;-67
2023/08/02 10:37:03;;;;;;;3.10;2.00;;;23.40;96.40;;;;;;6225646;28;89107;-67
2023/08/02 10:40:06;;;;;;;2.80;1.80;;;23.40;96.40;;;;;;6228208;28;89064;-67
2023/08/02 10:43:09;;;;;;;5.30;2.38;;;23.30;96.30;;;;;;6226446;28;88328;-68
2023/08/02 10:46:18;;;;;;;5.25;2.65;;;23.40;96.40;;;;;;6226358;28;88135;-67
2023/08/02 10:49:39;;;;;;;3.92;2.15;;;23.40;96.50;;;;;;6226555;28;88979;-67
2023/08/02 10:52:44;;;;;;;7.25;3.33;;;23.40;96.30;;;;;;6224801;28;88840;-67
2023/08/02 10:56:16;;;;;;;3.47;2.17;;;23.40;96.30;;;;;;6227766;28;89209;-68
2023/08/02 10:59:18;;;;;;;3.65;2.00;;;23.40;96.30;;;;;;6224686;28;88972;-67
2023/08/02 11:02:22;;;;;;;4.85;2.45;;;23.40;96.30;;;;;;6223666;28;89239;-67
2023/08/02 11:05:39;;;;;;;5.93;2.58;;;23.30;96.00;;;;;;6225399;28;89121;-67
2023/08/02 11:08:48;;;;;;;4.20;2.15;;;23.30;95.70;;;;;;6226855;28;88983;-68
2023/08/02 11:11:50;;;;;;;3.15;1.98;;;23.30;95.70;;;;;;6231865;28;89007;-67
2023/08/02 11:14:53;;;;;;;4.13;2.05;;;23.40;95.60;;;;;;6230654;27;88587;-67
2023/08/02 11:17:56;;;;;;;2.83;1.80;;;23.30;95.70;;;;;;6229406;28;89090;-67
2023/08/02 11:21:08;;;;;;;3.58;2.00;;;23.30;96.10;;;;;;6231743;28;89056;-67
2023/08/02 11:24:11;;;;;;;3.00;2.10;;;23.30;95.50;;;;;;6228544;28;90659;-67
2023/08/02 11:27:19;;;;;;;3.03;2.03;;;23.30;95.40;;;;;;6229847;28;89010;-67
2023/08/02 11:30:21;;;;;;;2.60;1.83;;;23.40;95.00;;;;;;6229056;28;88947;-67
2023/08/02 11:33:23;;;;;;;4.57;2.22;;;23.40;94.80;;;;;;6230704;28;88993;-67
2023/08/02 11:36:25;;;;;;;4.60;2.40;;;23.40;94.80;;;;;;6230476;28;88235;-67
2023/08/02 11:39:29;;;;;;;3.17;2.08;;;23.40;94.60;;;;;;6231800;28;88918;-67
2023/08/02 11:42:31;;;;;;;2.83;2.00;;;23.30;94.50;;;;;;6228990;28;89476;-67
2023/08/02 11:45:35;;;;;;;2.88;1.90;;;23.40;94.40;;;;;;6228861;28;88435;-67
2023/08/02 11:48:37;;;;;;;4.53;2.15;;;23.30;94.30;;;;;;6230418;28;88991;-67
2023/08/02 11:51:42;;;;;;;3.22;2.05;;;23.30;94.00;;;;;;6229509;28;90530;-67
2023/08/02 11:54:45;;;;;;;2.65;1.83;;;23.30;94.00;;;;;;6228715;28;90118;-67
2023/08/02 11:57:48;;;;;;;3.17;1.90;;;23.40;93.90;;;;;;6230446;28;89394;-67
2023/08/02 12:00:51;;;;;;;2.72;1.98;;;23.40;93.80;;;;;;6229514;28;89052;-67
2023/08/02 12:03:54;;;;;;;4.93;2.40;;;23.40;94.00;;;;;;6230662;28;89482;-67
2023/08/02 12:06:56;;;;;;;5.15;2.67;;;23.40;93.90;;;;;;6229554;28;89054;-67
2023/08/02 12:10:01;;;;;;;3.45;2.03;;;23.30;93.80;;;;;;6231133;28;89002;-67
2023/08/02 12:13:09;;;;;;;3.63;2.28;;;23.40;93.90;;;;;;6232065;28;89651;-67
2023/08/02 12:16:13;;;;;;;3.70;2.10;;;23.40;93.80;;;;;;6230457;28;88711;-66
2023/08/02 12:19:15;;;;;;;3.30;2.17;;;23.40;93.70;;;;;;6228198;28;89197;-67
2023/08/02 12:22:18;;;;;;;3.35;2.20;;;23.40;93.50;;;;;;6228033;28;88903;-67
2023/08/02 12:25:21;;;;;;;5.93;2.75;;;23.40;93.30;;;;;;6224631;28;90197;-67
2023/08/02 12:28:23;;;;;;;4.75;2.58;;;23.30;93.30;;;;;;6227835;28;89165;-67
2023/08/02 12:31:25;;;;;;;3.38;2.10;;;23.40;93.40;;;;;;6229769;28;90154;-67
2023/08/02 12:34:28;;;;;;;3.70;2.10;;;23.40;93.50;;;;;;6228455;28;88968;-67
2023/08/02 12:37:30;;;;;;;3.28;2.30;;;23.30;93.60;;;;;;6228583;28;89085;-67
2023/08/02 12:40:33;;;;;;;2.78;2.10;;;23.30;93.70;;;;;;6228190;28;89305;-67
2023/08/02 12:43:35;;;;;;;3.05;2.10;;;23.30;93.80;;;;;;6229004;28;87916;-67
2023/08/02 12:46:37;;;;;;;3.25;2.20;;;23.30;93.80;;;;;;6229110;28;87184;-67
2023/08/02 12:49:39;;;;;;;3.17;2.10;;;23.40;93.90;;;;;;6230385;28;89076;-67
2023/08/02 12:52:41;;;;;;;5.35;2.63;;;23.30;93.90;;;;;;6228973;28;89392;-67
2023/08/02 12:55:44;;;;;;;4.18;2.42;;;23.30;94.00;;;;;;6228368;28;90380;-67
2023/08/02 12:58:47;;;;;;;3.13;2.00;;;23.30;94.00;;;;;;6230233;27;89000;-67
2023/08/02 13:01:49;;;;;;;2.40;1.90;;;23.30;94.10;;;;;;6228380;28;91770;-67
2023/08/02 13:04:51;;;;;;;2.17;1.85;;;23.30;94.20;;;;;;6228945;28;88943;-67
2023/08/02 13:07:53;;;;;;;3.20;2.30;;;23.30;94.40;;;;;;6227552;28;88821;-67
2023/08/02 13:10:56;;;;;;;4.10;2.30;;;23.30;94.40;;;;;;6225707;28;89013;-67
2023/08/02 13:13:58;;;;;;;4.15;2.33;;;23.30;94.60;;;;;;6228108;28;89044;-67
2023/08/02 13:17:00;;;;;;;4.68;2.47;;;23.30;94.70;;;;;;6228354;28;88501;-67
2023/08/02 13:20:02;;;;;;;3.60;1.95;;;23.30;94.70;;;;;;6228681;28;89171;-67
2023/08/02 13:23:04;;;;;;;2.83;2.10;;;23.30;94.80;;;;;;6226158;28;89100;-67
2023/08/02 13:26:07;;;;;;;2.80;2.10;;;23.30;94.80;;;;;;6225598;28;90284;-67
2023/08/02 13:29:09;;;;;;;3.20;2.20;;;23.30;94.80;;;;;;6228203;28;89045;-67
2023/08/02 13:32:11;;;;;;;3.25;2.20;;;23.30;94.60;;;;;;6227593;28;89082;-67
2023/08/02 13:35:14;;;;;;;4.07;2.25;;;23.30;94.40;;;;;;6226970;28;89289;-67
2023/08/02 13:38:16;;;;;;;7.50;2.97;;;23.30;94.30;;;;;;6227047;28;89150;-67
2023/08/02 13:41:19;;;;;;;4.55;2.53;;;23.40;94.40;;;;;;6228600;28;89014;-67
2023/08/02 13:44:21;;;;;;;3.25;2.10;;;23.30;94.40;;;;;;6229568;28;89069;-67
2023/08/02 13:47:23;;;;;;;4.15;2.15;;;23.30;94.50;;;;;;6227058;28;88497;-67
2023/08/02 13:50:25;;;;;;;3.70;2.22;;;23.40;94.60;;;;;;6227653;28;89010;-67
2023/08/02 13:53:27;;;;;;;3.85;2.38;;;23.40;94.50;;;;;;6228129;28;89479;-67
2023/08/02 13:56:30;;;;;;;3.13;2.10;;;23.30;94.50;;;;;;6226617;28;90104;-67
2023/08/02 13:59:32;;;;;;;3.40;2.10;;;23.30;94.60;;;;;;6225420;28;89122;-67
2023/08/02 14:02:35;;;;;;;3.92;2.10;;;23.40;94.70;;;;;;6226997;28;88705;-67
2023/08/02 14:05:37;;;;;;;4.55;2.38;;;23.40;94.70;;;;;;6225881;28;87947;-67
2023/08/02 14:08:39;;;;;;;5.05;2.60;;;23.40;94.70;;;;;;6228213;28;87927;-67
2023/08/02 14:11:43;;;;;;;3.88;2.13;;;23.40;94.70;;;;;;6229258;27;89113;-67
2023/08/02 14:14:45;;;;;;;3.40;2.20;;;23.30;94.60;;;;;;6229156;28;89062;-67
2023/08/02 14:17:47;;;;;;;3.15;2.15;;;23.40;94.60;;;;;;6226842;28;88316;-67
2023/08/02 14:20:49;;;;;;;2.85;2.08;;;23.40;94.70;;;;;;6224443;28;87949;-68
2023/08/02 14:23:51;;;;;;;2.50;2.10;;;23.30;94.70;;;;;;6228595;28;89384;-67
2023/08/02 14:26:54;;;;;;;3.55;2.20;;;23.30;94.70;;;;;;6226332;28;90017;-67
2023/08/02 14:29:56;;;;;;;3.72;2.20;;;23.30;94.70;;;;;;6227124;28;87597;-67
2023/08/02 14:32:58;;;;;;;4.78;2.25;;;23.30;94.80;;;;;;6226987;28;89215;-67
2023/08/02 14:36:00;;;;;;;2.97;2.08;;;23.30;94.90;;;;;;6227124;28;89152;-67
2023/08/02 14:39:03;;;;;;;3.83;2.45;;;23.30;95.00;;;;;;6227321;28;89084;-67
2023/08/02 14:42:07;;;;;;;2.65;1.95;;;23.30;95.00;;;;;;6228903;28;90705;-67
2023/08/02 14:45:09;;;;;;;3.05;2.08;;;23.30;95.10;;;;;;6230136;28;90200;-67
2023/08/02 14:48:11;;;;;;;2.63;2.05;;;23.30;95.20;;;;;;6228847;28;88283;-67
2023/08/02 14:51:13;;;;;;;4.35;2.47;;;23.30;95.30;;;;;;6230358;28;90019;-67
2023/08/02 14:54:15;;;;;;;6.18;2.88;;;23.40;95.50;;;;;;6230934;28;87953;-68
2023/08/02 14:57:19;;;;;;;5.25;2.35;;;23.30;95.70;;;;;;6231293;28;89911;-67
2023/08/02 15:00:21;;;;;;;3.70;2.30;;;23.40;96.20;;;;;;6231122;28;89156;-67
2023/08/02 15:03:23;;;;;;;5.13;2.65;;;23.40;96.70;;;;;;6230331;28;87928;-68
2023/08/02 15:06:25;;;;;;;4.82;2.38;;;23.40;97.40;;;;;;6228448;28;88381;-67
2023/08/02 15:09:30;;;;;;;3.70;2.47;;;23.40;97.90;;;;;;6231336;28;89017;-67
2023/08/02 15:12:33;;;;;;;3.33;2.25;;;23.40;98.50;;;;;;6231958;28;87918;-67
2023/08/02 15:15:35;;;;;;;3.95;2.15;;;23.40;99.10;;;;;;6229699;28;88027;-67
2023/08/02 15:18:37;;;;;;;3.13;2.30;;;23.40;99.40;;;;;;6231637;28;88459;-67
2023/08/02 15:21:40;;;;;;;3.70;2.33;;;23.40;99.60;;;;;;6231047;27;89365;-67
2023/08/02 15:24:42;;;;;;;3.38;2.42;;;23.40;99.70;;;;;;6231249;28;88993;-67
2023/08/02 15:27:45;;;;;;;3.83;2.40;;;23.40;99.90;;;;;;6231945;28;90205;-67
2023/08/02 15:30:47;;;;;;;3.97;2.38;;;23.40;99.90;;;;;;6228858;28;89404;-67
2023/08/02 15:33:51;;;;;;;3.40;2.42;;;23.40;99.90;;;;;;6230361;28;89156;-67
2023/08/02 15:36:53;;;;;;;5.15;2.40;;;23.40;99.90;;;;;;6229798;28;89541;-67
2023/08/02 15:39:55;;;;;;;4.22;2.22;;;23.40;99.90;;;;;;6230118;28;89132;-67
2023/08/02 15:42:58;;;;;;;5.63;2.70;;;23.40;99.90;;;;;;6228338;28;89240;-67
2023/08/02 15:46:00;;;;;;;3.70;2.25;;;23.30;99.90;;;;;;6229883;28;87958;-67
2023/08/02 15:49:02;;;;;;;3.05;2.20;;;23.40;99.90;;;;;;6231635;28;89665;-67
2023/08/02 15:52:05;;;;;;;3.95;2.40;;;23.40;99.90;;;;;;6228393;28;89030;-67
2023/08/02 15:55:07;;;;;;;3.05;2.35;;;23.40;99.90;;;;;;6230101;28;89060;-67
2023/08/02 15:58:11;;;;;;;3.83;2.45;;;23.40;99.90;;;;;;6228921;28;89992;-67
2023/08/02 16:01:13;;;;;;;4.13;2.50;;;23.40;99.90;;;;;;6229225;28;89067;-67
2023/08/02 16:04:15;;;;;;;3.55;2.30;;;23.40;99.90;;;;;;6231050;28;89346;-67
2023/08/02 16:07:18;;;;;;;5.03;2.75;;;23.40;99.90;;;;;;6229256;28;89480;-67
2023/08/02 16:10:21;;;;;;;4.32;2.50;;;23.40;99.90;;;;;;6230137;28;87931;-67
2023/08/02 16:13:27;;;;;;;3.22;2.17;;;23.40;99.90;;;;;;6229444;28;87094;-67
2023/08/02 16:16:31;;;;;;;2.35;2.00;;;23.40;99.90;;;;;;6230200;28;87114;-67
2023/08/02 16:19:34;;;;;;;3.13;2.10;;;23.40;99.90;;;;;;6228492;28;86402;-67
2023/08/02 16:22:38;;;;;;;3.33;2.20;;;23.40;99.90;;;;;;6228533;28;88001;-67
2023/08/02 16:25:42;;;;;;;3.00;2.10;;;23.40;99.90;;;;;;6228900;28;87918;-67
2023/08/02 16:28:48;;;;;;;2.70;1.90;;;23.40;99.90;;;;;;6228594;28;88051;-68
2023/08/02 16:31:52;;;;;;;3.60;2.30;;;23.40;99.90;;;;;;6228550;28;88368;-67
2023/08/02 16:34:56;;;;;;;5.03;2.78;;;23.40;99.90;;;;;;6229225;28;87994;-67
2023/08/02 16:37:59;;;;;;;4.07;2.65;;;23.40;99.90;;;;;;6229407;28;87934;-67
2023/08/02 16:41:03;;;;;;;3.60;2.10;;;23.40;99.90;;;;;;6229808;28;87519;-67
2023/08/02 16:44:08;;;;;;;2.90;2.25;;;23.40;99.90;;;;;;6227985;28;87075;-67
2023/08/02 16:47:12;;;;;;;3.03;2.30;;;23.40;99.90;;;;;;6229262;28;87967;-67
2023/08/02 16:50:15;;;;;;;3.33;2.08;;;23.40;99.90;;;;;;6229471;28;87816;-67
2023/08/02 16:53:19;;;;;;;3.47;2.28;;;23.40;99.90;;;;;;6229215;28;87985;-67
2023/08/02 16:56:23;;;;;;;3.10;2.38;;;23.40;99.90;;;;;;6229912;28;87127;-67
2023/08/02 16:59:28;;;;;;;4.30;2.40;;;23.40;99.90;;;;;;6226300;28;88903;-67
2023/08/02 17:02:32;;;;;;;3.83;2.15;;;23.40;99.90;;;;;;6228780;28;88308;-67
2023/08/02 17:05:36;;;;;;;4.10;2.65;;;23.40;99.90;;;;;;6228593;28;88273;-67
2023/08/02 17:08:40;;;;;;;5.22;2.63;;;23.40;99.90;;;;;;6228467;28;87976;-67
2023/08/02 17:11:43;;;;;;;3.10;2.33;;;23.40;99.90;;;;;;6227871;28;87623;-67
2023/08/02 17:14:49;;;;;;;3.55;2.28;;;23.40;99.90;;;;;;6229004;27;88029;-67
2023/08/02 17:17:52;;;;;;;3.25;2.38;;;23.40;99.90;;;;;;6228255;28;88003;-67
2023/08/02 17:20:56;;;;;;;3.35;2.22;;;23.40;99.90;;;;;;6228194;28;87144;-68
2023/08/02 17:23:59;;;;;;;3.30;2.20;;;23.40;99.90;;;;;;6228876;28;87901;-67
2023/08/02 17:27:03;;;;;;;3.45;2.40;;;23.40;99.90;;;;;;6228400;28;89156;-67
2023/08/02 17:30:09;;;;;;;5.10;3.08;;;23.40;99.90;;;;;;6228003;28;90172;-67
2023/08/02 17:33:13;;;;;;;4.45;2.55;;;23.40;99.90;;;;;;6225813;28;88095;-67
2023/08/02 17:36:16;;;;;;;2.85;2.03;;;23.40;99.90;;;;;;6228948;28;88601;-67
2023/08/02 17:39:20;;;;;;;4.32;2.55;;;23.40;99.90;;;;;;6228797;28;87939;-67
2023/08/02 17:42:24;;;;;;;3.47;2.67;;;23.40;99.90;;;;;;6228006;28;88030;-67
2023/08/02 17:45:31;;;;;;;4.30;2.60;;;23.40;99.90;;;;;;6227327;28;88110;-67
2023/08/02 17:48:35;;;;;;;3.05;2.38;;;23.40;99.90;;;;;;6228017;28;87930;-67
2023/08/02 17:51:38;;;;;;;5.25;2.30;;;23.40;99.90;;;;;;6228026;28;87367;-67
2023/08/02 17:54:42;;;;;;;3.22;2.28;;;23.40;99.90;;;;;;6227319;28;87824;-67
2023/08/02 17:57:46;;;;;;;3.53;2.53;;;23.40;99.90;;;;;;6227209;28;88782;-67
2023/08/02 18:00:52;;;;;;;2.95;2.13;;;23.40;99.90;;;;;;6226586;28;88789;-67
2023/08/02 18:03:56;;;;;;;5.82;3.10;;;23.40;99.90;;;;;;6227551;28;88026;-67
2023/08/02 18:07:00;;;;;;;5.88;2.90;;;23.40;99.90;;;;;;6227119;28;87258;-67
2023/08/02 18:10:05;;;;;;;3.10;2.22;;;23.40;99.90;;;;;;6227056;28;87918;-67
2023/08/02 18:13:09;;;;;;;3.17;2.50;;;23.40;99.90;;;;;;6227093;28;88030;-67
2023/08/02 18:16:15;;;;;;;3.30;2.70;;;23.40;99.90;;;;;;6227250;28;88020;-67
2023/08/02 18:19:18;;;;;;;3.40;2.47;;;23.40;99.90;;;;;;6228258;28;88066;-67
2023/08/02 18:22:22;;;;;;;3.55;2.42;;;23.40;99.90;;;;;;6227345;28;87640;-68
2023/08/02 18:25:26;;;;;;;2.90;2.30;;;23.40;99.90;;;;;;6226207;28;88012;-67
2023/08/02 18:28:31;;;;;;;5.60;2.92;;;23.40;99.90;;;;;;6227533;28;88112;-68
2023/08/02 18:31:36;;;;;;;7.35;3.38;;;23.40;99.90;;;;;;6225400;28;89118;-67
2023/08/02 18:34:39;;;;;;;3.65;2.30;;;23.40;99.90;;;;;;6226945;28;87775;-68
2023/08/02 18:37:43;;;;;;;4.28;2.30;;;23.40;99.90;;;;;;6226378;28;89583;-67
2023/08/02 18:40:46;;;;;;;3.30;2.50;;;23.40;99.90;;;;;;6226095;28;89256;-68
2023/08/02 18:43:51;;;;;;;3.03;2.45;;;23.40;99.90;;;;;;6225211;28;87974;-67
2023/08/02 18:46:57;;;;;;;2.88;2.30;;;23.40;99.90;;;;;;6226445;28;88228;-67
2023/08/02 18:50:00;;;;;;;2.85;2.22;;;23.40;99.90;;;;;;6226440;28;88761;-67
2023/08/02 18:53:04;;;;;;;3.75;2.55;;;23.40;99.90;;;;;;6223366;28;87428;-67
2023/08/02 18:56:11;;;;;;;3.83;2.40;;;23.40;99.90;;;;;;6226244;28;89165;-66
2023/08/02 18:59:15;;;;;;;5.30;2.55;;;23.40;99.90;;;;;;6233698;28;88011;-66
2023/08/02 19:02:21;;;;;;;6.85;3.30;;;23.40;99.90;;;;;;6208304;28;89280;-67
2023/08/02 19:05:26;;;;;;;5.15;2.53;;;23.40;99.90;;;;;;6206151;28;88370;-68
2023/08/02 19:08:36;;;;;;;6.63;3.10;;;23.40;99.90;;;;;;6227072;28;88009;-69
2023/08/02 19:11:42;;;;;;;4.57;2.50;;;23.40;99.90;;;;;;6235476;27;87095;-69
2023/08/02 19:14:48;;;;;;;4.90;2.60;;;23.40;99.90;;;;;;6230201;28;88395;-69
2023/08/02 19:17:53;;;;;;;5.22;2.63;;;23.40;99.90;;;;;;6248893;27;88001;-69
2023/08/02 19:20:59;;;;;;;2.97;2.35;;;23.40;99.90;;;;;;6223502;27;88863;-71
2023/08/02 19:24:02;;;;;;;4.25;2.63;;;23.50;99.90;;;;;;6227168;28;87276;-69
2023/08/02 19:27:11;;;;;;;4.55;2.67;;;23.40;99.90;;;;;;6229066;28;88030;-69
2023/08/02 19:30:23;;;;;;;4.18;2.50;;;23.50;99.90;;;;;;6246417;28;88245;-68
2023/08/02 19:33:32;;;;;;;3.95;2.35;;;23.50;99.90;;;;;;6232315;28;87960;-68
2023/08/02 19:36:39;;;;;;;5.22;2.55;;;23.50;99.90;;;;;;6215285;28;88051;-68
2023/08/02 19:39:42;;;;;;;6.40;2.72;;;23.50;99.90;;;;;;6242704;27;86998;-68
2023/08/02 19:42:48;;;;;;;3.75;2.30;;;23.50;99.90;;;;;;6231536;28;87601;-69
2023/08/02 19:45:57;;;;;;;3.33;2.42;;;23.50;99.90;;;;;;6234810;27;88369;-69
2023/08/02 19:49:03;;;;;;;3.10;2.22;;;23.40;99.90;;;;;;6237026;27;87624;-68
2023/08/02 19:52:08;;;;;;;5.40;2.63;;;23.50;99.90;;;;;;6240123;27;88049;-68
2023/08/02 19:55:14;;;;;;;5.45;2.75;;;23.50;99.90;;;;;;6232375;28;87591;-68